createdAt,value
2018-06-29T00:00:07.351Z,22.24
2018-06-29T00:02:35.933Z,22.29
2018-06-29T00:05:04.956Z,22.06
2018-06-29T00:07:33.574Z,21.86
2018-06-29T00:10:02.157Z,21.82
2018-06-29T00:12:30.783Z,21.66
2018-06-29T00:14:59.320Z,21.57
2018-06-29T00:17:27.945Z,21.61
2018-06-29T00:19:56.493Z,21.63
2018-06-29T00:22:25.260Z,21.80
2018-06-29T00:24:53.795Z,21.64
2018-06-29T00:27:22.374Z,21.49
2018-06-29T00:29:50.980Z,21.80
2018-06-29T00:32:19.524Z,21.84
2018-06-29T00:34:48.108Z,21.73
2018-06-29T00:37:16.696Z,21.63
2018-06-29T00:39:45.603Z,21.73
2018-06-29T00:42:14.190Z,21.78
2018-06-29T00:44:42.788Z,21.53
2018-06-29T00:47:11.372Z,21.76
2018-06-29T00:49:39.984Z,21.63
2018-06-29T00:52:08.595Z,21.63
2018-06-29T00:54:37.223Z,21.57
2018-06-29T00:57:06.116Z,21.50
2018-06-29T00:59:34.816Z,21.58
2018-06-29T01:02:03.488Z,21.71
2018-06-29T01:04:32.136Z,21.58
2018-06-29T01:07:00.890Z,21.60
2018-06-29T01:09:29.492Z,21.53
2018-06-29T01:11:58.076Z,21.52
2018-06-29T01:14:26.905Z,21.57
2018-06-29T01:16:55.576Z,21.42
2018-06-29T01:19:24.113Z,21.49
2018-06-29T01:21:52.796Z,21.36
2018-06-29T01:24:21.361Z,21.18
2018-06-29T01:26:49.944Z,21.43
2018-06-29T01:29:18.553Z,21.37
2018-06-29T01:31:47.291Z,21.40
2018-06-29T01:34:15.847Z,21.29
2018-06-29T01:36:44.450Z,21.37
2018-06-29T01:39:13.068Z,21.19
2018-06-29T01:41:41.627Z,21.29
2018-06-29T01:44:10.237Z,21.02
2018-06-29T01:46:38.876Z,20.80
2018-06-29T01:49:07.584Z,20.77
2018-06-29T01:51:36.113Z,20.99
2018-06-29T01:54:04.727Z,21.02
2018-06-29T01:56:33.401Z,21.14
2018-06-29T01:59:01.931Z,21.15
2018-06-29T02:01:30.537Z,21.00
2018-06-29T02:03:59.146Z,20.92
2018-06-29T02:06:27.709Z,20.84
2018-06-29T02:08:56.308Z,21.02
2018-06-29T02:11:24.880Z,21.08
2018-06-29T02:13:53.828Z,20.86
2018-06-29T02:16:22.451Z,20.83
2018-06-29T02:18:51.068Z,20.94
2018-06-29T02:21:19.636Z,20.88
2018-06-29T02:23:48.189Z,20.97
2018-06-29T02:26:16.790Z,20.96
2018-06-29T02:28:45.372Z,20.77
2018-06-29T02:31:14.028Z,20.97
2018-06-29T02:33:42.623Z,20.77
2018-06-29T02:36:11.158Z,20.76
2018-06-29T02:38:39.807Z,21.09
2018-06-29T02:41:08.356Z,20.90
2018-06-29T02:43:36.904Z,20.90
2018-06-29T02:46:05.560Z,21.02
2018-06-29T02:48:34.388Z,21.10
2018-06-29T02:51:02.944Z,21.07
2018-06-29T02:53:31.484Z,20.89
2018-06-29T02:56:00.160Z,20.93
2018-06-29T02:58:28.684Z,20.83
2018-06-29T03:00:57.404Z,20.93
2018-06-29T03:03:26.001Z,21.02
2018-06-29T03:05:54.638Z,20.86
2018-06-29T03:08:23.369Z,21.15
2018-06-29T03:10:51.868Z,20.85
2018-06-29T03:13:20.427Z,20.88
2018-06-29T03:15:49.020Z,20.89
2018-06-29T03:18:17.637Z,20.92
2018-06-29T03:20:46.260Z,20.94
2018-06-29T03:23:15.060Z,20.96
2018-06-29T03:25:43.606Z,20.96
2018-06-29T03:28:12.192Z,20.94
2018-06-29T03:30:40.796Z,20.87
2018-06-29T03:33:09.327Z,20.81
2018-06-29T03:35:37.900Z,20.90
2018-06-29T03:38:06.535Z,20.76
2018-06-29T03:40:35.317Z,20.75
2018-06-29T03:43:03.672Z,20.62
2018-06-29T03:45:32.189Z,20.57
2018-06-29T03:48:00.788Z,20.62
2018-06-29T03:50:29.329Z,20.62
2018-06-29T03:52:58.012Z,20.69
2018-06-29T03:55:26.543Z,20.72
2018-06-29T03:57:55.152Z,20.77
2018-06-29T04:00:23.769Z,20.88
2018-06-29T04:02:52.328Z,20.91
2018-06-29T04:05:20.944Z,20.80
2018-06-29T04:07:49.522Z,20.87
2018-06-29T04:10:18.172Z,20.92
2018-06-29T04:12:46.932Z,20.95
2018-06-29T04:15:15.760Z,21.07
2018-06-29T04:17:44.384Z,20.93
2018-06-29T04:20:12.893Z,20.96
2018-06-29T04:22:41.556Z,20.88
2018-06-29T04:25:10.160Z,20.93
2018-06-29T04:27:38.728Z,20.91
2018-06-29T04:30:07.425Z,20.97
2018-06-29T04:32:36.244Z,20.96
2018-06-29T04:35:04.912Z,21.11
2018-06-29T04:37:33.480Z,21.12
2018-06-29T04:40:02.017Z,21.00
2018-06-29T04:42:30.615Z,21.16
2018-06-29T04:44:59.208Z,21.22
2018-06-29T04:47:27.768Z,21.16
2018-06-29T04:49:56.337Z,21.23
2018-06-29T04:52:25.084Z,21.29
2018-06-29T04:54:53.776Z,21.45
2018-06-29T04:57:22.489Z,21.75
2018-06-29T04:59:51.044Z,21.93
2018-06-29T05:02:19.576Z,21.88
2018-06-29T05:04:48.144Z,22.16
2018-06-29T05:07:17.200Z,22.30
2018-06-29T05:09:45.813Z,22.13
2018-06-29T05:12:14.384Z,22.35
2018-06-29T05:14:43.068Z,22.28
2018-06-29T05:17:11.647Z,22.16
2018-06-29T05:19:40.277Z,22.09
2018-06-29T05:22:08.944Z,22.09
2018-06-29T05:24:37.552Z,22.36
2018-06-29T05:27:06.201Z,22.43
2018-06-29T05:29:34.908Z,22.61
2018-06-29T05:32:03.428Z,22.41
2018-06-29T05:34:32.028Z,22.33
2018-06-29T05:37:00.635Z,22.56
2018-06-29T05:39:29.257Z,22.23
2018-06-29T05:41:57.888Z,22.52
2018-06-29T05:44:26.483Z,22.53
2018-06-29T05:46:55.402Z,22.54
2018-06-29T05:49:24.026Z,22.33
2018-06-29T05:51:52.793Z,22.40
2018-06-29T05:54:21.457Z,22.30
2018-06-29T05:56:49.976Z,22.55
2018-06-29T05:59:18.688Z,22.45
2018-06-29T06:01:47.397Z,22.29
2018-06-29T06:04:16.096Z,22.31
2018-06-29T06:06:44.623Z,22.32
2018-06-29T06:09:13.633Z,22.79
2018-06-29T06:11:42.265Z,23.18
2018-06-29T06:14:10.916Z,23.27
2018-06-29T06:16:39.628Z,23.24
2018-06-29T06:19:19.380Z,23.20
2018-06-29T06:21:48.073Z,23.13
2018-06-29T06:24:16.640Z,23.69
2018-06-29T06:26:45.284Z,23.43
2018-06-29T06:29:13.827Z,23.68
2018-06-29T06:31:42.592Z,23.80
2018-06-29T06:34:11.149Z,23.76
2018-06-29T06:36:39.727Z,23.95
2018-06-29T06:39:10.745Z,23.99
2018-06-29T06:41:39.291Z,24.00
2018-06-29T06:44:08.149Z,23.87
2018-06-29T06:46:36.848Z,23.85
2018-06-29T06:49:05.624Z,23.89
2018-06-29T06:51:34.243Z,24.04
2018-06-29T06:54:02.860Z,23.99
2018-06-29T06:56:31.498Z,23.92
2018-06-29T06:59:00.169Z,24.11
2018-06-29T07:01:28.904Z,24.14
2018-06-29T07:03:57.428Z,24.34
2018-06-29T07:06:26.253Z,24.52
2018-06-29T07:08:54.848Z,24.68
2018-06-29T07:11:23.494Z,24.96
2018-06-29T07:13:52.113Z,25.05
2018-06-29T07:16:20.640Z,25.22
2018-06-29T07:18:49.192Z,25.37
2018-06-29T07:21:17.825Z,25.28
2018-06-29T07:23:46.460Z,25.30
2018-06-29T07:26:15.063Z,25.48
2018-06-29T07:28:43.875Z,25.37
2018-06-29T07:31:12.452Z,25.82
2018-06-29T07:33:41.120Z,26.08
2018-06-29T07:36:09.764Z,25.89
2018-06-29T07:38:38.349Z,25.76
2018-06-29T07:41:06.996Z,25.36
2018-06-29T07:43:35.633Z,25.74
2018-06-29T07:46:04.248Z,26.04
2018-06-29T07:48:32.820Z,26.46
2018-06-29T07:51:01.544Z,26.36
2018-06-29T07:53:30.111Z,26.50
2018-06-29T07:55:58.885Z,26.26
2018-06-29T07:58:27.522Z,26.68
2018-06-29T08:01:02.772Z,26.49
2018-06-29T08:03:33.345Z,26.66
2018-06-29T08:06:01.984Z,27.12
2018-06-29T08:08:30.709Z,26.99
2018-06-29T08:10:59.735Z,27.20
2018-06-29T08:13:28.928Z,26.76
2018-06-29T08:15:57.961Z,27.31
2018-06-29T08:18:26.842Z,27.56
2018-06-29T08:20:55.408Z,27.54
2018-06-29T08:23:30.880Z,27.14
2018-06-29T08:26:10.716Z,27.43
2018-06-29T08:28:39.559Z,27.83
2018-06-29T08:31:08.488Z,27.73
2018-06-29T08:33:37.073Z,27.55
2018-06-29T08:36:06.204Z,27.45
2018-06-29T08:38:35.160Z,27.65
2018-06-29T08:41:03.645Z,27.35
2018-06-29T08:43:32.290Z,27.26
2018-06-29T08:46:00.935Z,26.87
2018-06-29T08:48:29.540Z,27.13
2018-06-29T08:50:58.485Z,27.43
2018-06-29T08:53:27.072Z,26.88
2018-06-29T08:55:55.702Z,26.96
2018-06-29T08:58:24.257Z,27.03
2018-06-29T09:00:52.928Z,26.98
2018-06-29T09:03:21.633Z,26.81
2018-06-29T09:05:50.368Z,27.02
2018-06-29T09:08:18.972Z,27.06
2018-06-29T09:10:47.667Z,26.84
2018-06-29T09:13:16.228Z,26.86
2018-06-29T09:15:44.839Z,26.86
2018-06-29T09:18:13.562Z,26.91
2018-06-29T09:20:42.092Z,27.12
2018-06-29T09:23:10.672Z,26.92
2018-06-29T09:25:39.204Z,27.09
2018-06-29T09:28:07.955Z,26.68
2018-06-29T09:30:36.476Z,26.61
2018-06-29T09:33:05.056Z,26.64
2018-06-29T09:35:33.650Z,26.90
2018-06-29T09:38:02.286Z,26.82
2018-06-29T09:40:30.892Z,27.10
2018-06-29T09:42:59.466Z,27.52
2018-06-29T09:45:28.328Z,27.47
2018-06-29T09:47:56.889Z,27.38
2018-06-29T09:50:25.504Z,27.45
2018-06-29T09:52:54.096Z,27.48
2018-06-29T09:55:22.671Z,27.28
2018-06-29T09:57:51.211Z,28.01
2018-06-29T10:00:28.056Z,28.16
2018-06-29T10:02:58.021Z,28.56
2018-06-29T10:05:27.092Z,28.86
2018-06-29T10:07:55.884Z,28.05
2018-06-29T10:10:24.736Z,28.27
2018-06-29T10:12:53.420Z,28.38
2018-06-29T10:15:22.028Z,28.30
2018-06-29T10:17:51.001Z,27.97
2018-06-29T10:20:19.644Z,27.92
2018-06-29T10:22:48.227Z,28.09
2018-06-29T10:25:16.934Z,27.97
2018-06-29T10:27:45.520Z,28.51
2018-06-29T10:30:14.161Z,28.16
2018-06-29T10:32:42.766Z,28.11
2018-06-29T10:35:11.485Z,28.19
2018-06-29T10:37:40.385Z,28.71
2018-06-29T10:40:09.065Z,28.75
2018-06-29T10:42:37.624Z,28.58
2018-06-29T10:45:06.254Z,28.73
2018-06-29T10:47:34.828Z,29.03
2018-06-29T10:50:03.372Z,28.51
2018-06-29T10:52:32.084Z,28.48
2018-06-29T10:55:00.624Z,28.77
2018-06-29T10:57:29.205Z,28.21
2018-06-29T10:59:57.800Z,28.91
2018-06-29T11:02:26.449Z,28.69
2018-06-29T11:04:55.091Z,29.15
2018-06-29T11:07:23.642Z,29.55
2018-06-29T11:09:52.354Z,29.35
2018-06-29T11:12:20.912Z,29.19
2018-06-29T11:14:49.473Z,29.21
2018-06-29T11:17:18.033Z,28.99
2018-06-29T11:19:46.700Z,28.87
2018-06-29T11:22:15.321Z,28.99
2018-06-29T11:24:43.905Z,29.24
2018-06-29T11:27:12.528Z,29.45
2018-06-29T11:29:41.089Z,29.93
2018-06-29T11:32:09.690Z,29.27
2018-06-29T11:34:38.234Z,29.36
2018-06-29T11:37:06.950Z,29.31
2018-06-29T11:39:35.608Z,29.46
2018-06-29T11:42:04.312Z,29.55
2018-06-29T11:44:32.874Z,29.14
2018-06-29T11:47:01.542Z,29.55
2018-06-29T11:49:30.076Z,29.31
2018-06-29T11:51:58.704Z,29.56
2018-06-29T11:54:27.298Z,28.91
2018-06-29T11:56:55.925Z,29.52
2018-06-29T11:59:24.457Z,29.75
2018-06-29T12:01:53.051Z,29.87
2018-06-29T12:04:21.677Z,29.74
2018-06-29T12:06:50.204Z,29.66
2018-06-29T12:09:18.760Z,29.76
2018-06-29T12:11:47.320Z,29.78
2018-06-29T12:14:15.976Z,29.73
2018-06-29T12:16:44.535Z,29.78
2018-06-29T12:19:13.124Z,29.68
2018-06-29T12:21:41.876Z,29.77
2018-06-29T12:24:10.968Z,29.76
2018-06-29T12:26:39.548Z,30.25
2018-06-29T12:29:08.180Z,29.95
2018-06-29T12:31:36.760Z,29.79
2018-06-29T12:34:05.330Z,29.87
2018-06-29T12:36:33.879Z,29.38
2018-06-29T12:39:02.560Z,29.59
2018-06-29T12:41:31.166Z,30.04
2018-06-29T12:43:59.927Z,30.11
2018-06-29T12:46:28.484Z,30.51
2018-06-29T12:48:57.068Z,30.16
2018-06-29T12:51:25.714Z,29.95
2018-06-29T12:53:54.560Z,30.10
2018-06-29T12:56:23.179Z,30.31
2018-06-29T12:58:51.800Z,30.66
2018-06-29T13:01:20.488Z,30.41
2018-06-29T13:03:49.042Z,29.96
2018-06-29T13:06:18.041Z,30.02
2018-06-29T13:08:46.822Z,30.14
2018-06-29T13:11:15.494Z,29.97
2018-06-29T13:13:44.096Z,30.41
2018-06-29T13:16:12.700Z,30.31
2018-06-29T13:18:41.724Z,29.67
2018-06-29T13:21:10.321Z,29.75
2018-06-29T13:23:38.896Z,29.21
2018-06-29T13:26:07.712Z,29.89
2018-06-29T13:28:36.260Z,29.54
2018-06-29T13:31:04.905Z,30.29
2018-06-29T13:33:33.449Z,30.62
2018-06-29T13:36:02.423Z,30.81
2018-06-29T13:38:30.982Z,30.34
2018-06-29T13:40:59.536Z,30.50
2018-06-29T13:43:28.070Z,30.45
2018-06-29T13:45:57.001Z,30.33
2018-06-29T13:48:25.604Z,30.11
2018-06-29T13:50:54.252Z,30.33
2018-06-29T13:53:22.860Z,30.37
2018-06-29T13:55:51.452Z,30.14
2018-06-29T13:58:20.076Z,30.49
2018-06-29T14:00:48.646Z,30.85
2018-06-29T14:03:17.228Z,31.17
2018-06-29T14:05:45.756Z,30.96
2018-06-29T14:08:14.341Z,30.41
2018-06-29T14:10:42.975Z,30.62
2018-06-29T14:13:11.536Z,30.71
2018-06-29T14:15:40.081Z,30.90
2018-06-29T14:18:08.657Z,30.96
2018-06-29T14:20:37.217Z,29.93
2018-06-29T14:23:05.765Z,30.64
2018-06-29T14:25:34.348Z,30.91
2018-06-29T14:28:03.045Z,30.53
2018-06-29T14:30:31.685Z,30.70
2018-06-29T14:33:00.384Z,31.12
2018-06-29T14:35:29.066Z,30.80
2018-06-29T14:37:57.692Z,30.82
2018-06-29T14:40:26.308Z,30.85
2018-06-29T14:42:54.928Z,31.03
2018-06-29T14:45:23.480Z,30.76
2018-06-29T14:47:52.001Z,30.84
2018-06-29T14:50:20.600Z,30.71
2018-06-29T14:52:49.226Z,31.13
2018-06-29T14:55:17.924Z,31.19
2018-06-29T14:57:46.556Z,31.49
2018-06-29T15:00:15.177Z,31.10
2018-06-29T15:02:43.732Z,30.71
2018-06-29T15:05:12.371Z,30.77
2018-06-29T15:07:40.932Z,30.26
2018-06-29T15:10:09.641Z,30.50
2018-06-29T15:12:38.212Z,30.07
2018-06-29T15:15:06.793Z,30.16
2018-06-29T15:17:35.833Z,30.35
2018-06-29T15:20:06.029Z,30.42
2018-06-29T15:22:34.790Z,30.67
2018-06-29T15:25:03.457Z,31.07
2018-06-29T15:27:32.026Z,30.92
2018-06-29T15:30:01.725Z,31.00
2018-06-29T15:32:30.389Z,30.95
2018-06-29T15:34:58.997Z,30.73
2018-06-29T15:37:27.583Z,30.69
2018-06-29T15:39:56.247Z,30.44
2018-06-29T15:42:24.740Z,30.55
2018-06-29T15:44:53.382Z,30.54
2018-06-29T15:47:22.009Z,30.57
2018-06-29T15:49:50.536Z,30.66
2018-06-29T15:52:19.137Z,30.57
2018-06-29T15:54:47.757Z,30.59
2018-06-29T15:57:16.468Z,30.17
2018-06-29T15:59:45.021Z,30.26
2018-06-29T16:02:14.074Z,30.20
2018-06-29T16:04:42.724Z,30.42
2018-06-29T16:07:11.393Z,30.18
2018-06-29T16:09:39.964Z,30.46
2018-06-29T16:12:08.530Z,30.45
2018-06-29T16:14:37.144Z,30.76
2018-06-29T16:17:05.828Z,30.71
2018-06-29T16:19:34.480Z,30.76
2018-06-29T16:22:03.128Z,30.36
2018-06-29T16:24:31.788Z,30.43
2018-06-29T16:27:00.334Z,30.42
2018-06-29T16:29:28.945Z,30.53
2018-06-29T16:31:57.544Z,30.21
2018-06-29T16:34:26.040Z,30.17
2018-06-29T16:36:54.780Z,30.12
2018-06-29T16:39:23.352Z,30.49
2018-06-29T16:41:51.968Z,30.48
2018-06-29T16:44:20.504Z,30.94
2018-06-29T16:46:49.103Z,30.94
2018-06-29T16:49:17.648Z,30.84
2018-06-29T16:51:46.347Z,30.82
2018-06-29T16:54:14.992Z,30.70
2018-06-29T16:56:44.022Z,30.57
2018-06-29T16:59:12.592Z,30.51
2018-06-29T17:01:41.416Z,30.33
2018-06-29T17:04:10.026Z,30.29
2018-06-29T17:06:38.561Z,30.38
2018-06-29T17:09:08.773Z,30.30
2018-06-29T17:11:37.288Z,30.48
2018-06-29T17:14:06.240Z,30.42
2018-06-29T17:16:34.804Z,30.72
2018-06-29T17:19:03.465Z,30.54
2018-06-29T17:21:32.124Z,30.71
2018-06-29T17:24:00.844Z,30.70
2018-06-29T17:26:29.620Z,30.12
2018-06-29T17:28:58.460Z,30.24
2018-06-29T17:31:27.059Z,30.29
2018-06-29T17:33:55.607Z,30.43
2018-06-29T17:36:24.169Z,30.35
2018-06-29T17:38:52.768Z,30.23
2018-06-29T17:41:21.629Z,30.23
2018-06-29T17:43:50.169Z,30.19
2018-06-29T17:46:18.733Z,30.44
2018-06-29T17:48:47.299Z,30.19
2018-06-29T17:51:15.872Z,30.04
2018-06-29T17:53:44.766Z,29.91
2018-06-29T17:56:13.354Z,29.99
2018-06-29T17:58:41.952Z,29.98
2018-06-29T18:01:10.568Z,29.91
2018-06-29T18:03:39.160Z,29.73
2018-06-29T18:06:07.704Z,29.97
2018-06-29T18:08:36.281Z,29.78
2018-06-29T18:11:04.868Z,29.76
2018-06-29T18:13:33.456Z,29.62
2018-06-29T18:16:02.412Z,29.48
2018-06-29T18:18:30.922Z,29.55
2018-06-29T18:20:59.544Z,29.42
2018-06-29T18:23:28.756Z,29.14
2018-06-29T18:25:57.376Z,29.32
2018-06-29T18:28:25.944Z,29.15
2018-06-29T18:30:54.645Z,29.01
2018-06-29T18:33:23.285Z,28.86
2018-06-29T18:35:51.924Z,28.77
2018-06-29T18:38:20.972Z,28.74
2018-06-29T18:40:49.644Z,28.62
2018-06-29T18:43:18.248Z,28.26
2018-06-29T18:45:46.901Z,28.15
2018-06-29T18:48:15.497Z,27.97
2018-06-29T18:50:44.036Z,27.85
2018-06-29T18:53:12.608Z,27.63
2018-06-29T18:55:41.104Z,26.89
2018-06-29T18:58:09.748Z,27.20
2018-06-29T19:00:38.409Z,27.29
2018-06-29T19:03:07.021Z,27.16
2018-06-29T19:05:35.587Z,27.27
2018-06-29T19:08:04.292Z,27.08
2018-06-29T19:10:32.892Z,26.91
2018-06-29T19:13:01.497Z,26.68
2018-06-29T19:15:30.097Z,26.71
2018-06-29T19:17:58.676Z,26.74
2018-06-29T19:20:27.208Z,26.62
2018-06-29T19:22:55.780Z,26.53
2018-06-29T19:25:24.435Z,26.23
2018-06-29T19:27:53.417Z,26.22
2018-06-29T19:30:22.342Z,26.09
2018-06-29T19:32:51.233Z,26.14
2018-06-29T19:35:20.033Z,25.79
2018-06-29T19:37:49.007Z,25.91
2018-06-29T19:40:17.597Z,25.81
2018-06-29T19:42:46.188Z,25.56
2018-06-29T19:45:14.927Z,25.99
2018-06-29T19:47:43.504Z,25.74
2018-06-29T19:50:12.133Z,25.87
2018-06-29T19:52:40.681Z,25.86
2018-06-29T19:55:09.568Z,25.82
2018-06-29T19:57:38.139Z,25.95
2018-06-29T20:00:07.029Z,25.95
2018-06-29T20:02:35.654Z,25.85
2018-06-29T20:05:04.377Z,25.62
2018-06-29T20:07:32.992Z,25.22
2018-06-29T20:10:01.543Z,25.40
2018-06-29T20:12:30.216Z,25.22
2018-06-29T20:14:58.750Z,25.03
2018-06-29T20:17:27.320Z,24.88
2018-06-29T20:19:55.868Z,24.86
2018-06-29T20:22:24.592Z,24.70
2018-06-29T20:24:53.167Z,24.52
2018-06-29T20:27:22.074Z,24.42
2018-06-29T20:29:50.657Z,24.13
2018-06-29T20:32:19.515Z,24.18
2018-06-29T20:34:48.156Z,24.01
2018-06-29T20:37:16.752Z,23.08
2018-06-29T20:39:45.508Z,23.57
2018-06-29T20:42:14.117Z,23.59
2018-06-29T20:44:42.745Z,23.64
2018-06-29T20:47:11.390Z,23.69
2018-06-29T20:49:40.021Z,22.58
2018-06-29T20:52:08.870Z,23.08
2018-06-29T20:54:37.553Z,23.17
2018-06-29T20:57:06.259Z,22.73
2018-06-29T20:59:34.984Z,23.09
2018-06-29T21:02:03.653Z,22.91
2018-06-29T21:04:32.251Z,22.84
2018-06-29T21:07:00.809Z,22.21
2018-06-29T21:09:29.515Z,22.60
2018-06-29T21:11:58.140Z,22.61
2018-06-29T21:14:26.972Z,22.44
2018-06-29T21:16:56.075Z,22.42
2018-06-29T21:19:24.617Z,22.42
2018-06-29T21:21:53.436Z,22.28
2018-06-29T21:24:22.004Z,22.12
2018-06-29T21:26:50.584Z,22.38
2018-06-29T21:29:19.245Z,21.37
2018-06-29T21:31:47.800Z,21.73
2018-06-29T21:34:16.356Z,21.71
2018-06-29T21:36:44.908Z,21.91
2018-06-29T21:39:13.587Z,21.57
2018-06-29T21:41:42.253Z,21.89
2018-06-29T21:44:10.868Z,21.64
2018-06-29T21:46:39.440Z,21.94
2018-06-29T21:49:07.992Z,21.19
2018-06-29T21:51:36.584Z,21.21
2018-06-29T21:54:05.420Z,21.47
2018-06-29T21:56:34.082Z,21.59
2018-06-29T21:59:02.673Z,21.83
2018-06-29T22:01:31.256Z,21.46
2018-06-29T22:03:59.809Z,21.45
2018-06-29T22:06:28.381Z,21.28
2018-06-29T22:08:56.960Z,21.42
2018-06-29T22:11:25.577Z,21.47
2018-06-29T22:13:54.203Z,20.64
2018-06-29T22:16:22.868Z,20.76
2018-06-29T22:18:51.516Z,21.11
2018-06-29T22:21:20.168Z,21.05
2018-06-29T22:23:48.704Z,20.97
2018-06-29T22:26:17.296Z,20.95
2018-06-29T22:28:45.933Z,20.48
2018-06-29T22:31:14.680Z,21.17
2018-06-29T22:33:43.222Z,20.19
2018-06-29T22:36:11.937Z,20.83
2018-06-29T22:38:40.532Z,20.38
2018-06-29T22:41:09.108Z,20.34
2018-06-29T22:43:37.668Z,20.33
2018-06-29T22:46:06.309Z,20.61
2018-06-29T22:48:34.972Z,20.60
2018-06-29T22:51:03.600Z,20.63
2018-06-29T22:53:32.173Z,20.47
2018-06-29T22:56:00.824Z,19.95
2018-06-29T22:58:29.424Z,20.33
2018-06-29T23:00:58.096Z,20.38
2018-06-29T23:03:32.204Z,19.32
2018-06-29T23:06:01.057Z,19.76
2018-06-29T23:08:29.611Z,19.89
2018-06-29T23:10:58.200Z,19.99
2018-06-29T23:13:26.752Z,19.93
2018-06-29T23:15:55.372Z,19.40
2018-06-29T23:18:23.945Z,19.75
2018-06-29T23:20:52.505Z,19.64
2018-06-29T23:23:21.086Z,19.58
2018-06-29T23:25:49.652Z,19.50
2018-06-29T23:28:18.306Z,19.43
2018-06-29T23:30:46.836Z,19.37
2018-06-29T23:33:15.384Z,19.25
2018-06-29T23:35:43.960Z,19.21
2018-06-29T23:38:12.577Z,18.96
2018-06-29T23:40:41.156Z,18.94
2018-06-29T23:43:09.772Z,18.97
2018-06-29T23:45:38.337Z,19.17
2018-06-29T23:48:07.173Z,19.28
2018-06-29T23:50:36.120Z,19.19
2018-06-29T23:53:04.884Z,19.20
2018-06-29T23:55:33.768Z,19.26
2018-06-29T23:58:02.380Z,19.01
